Time;durP1;ratioP1;P1;durP2;ratioP2;P2;SDS_P1;SDS_P2;PMS_P1;PMS_P2;Temp;Humidity;BMP_temperature;BMP_pressure;BME280_temperature;BME280_humidity;BME280_pressure;Samples;Min_cycle;Max_cycle;Signal;HPM_P1;HPM_P2
2023/10/22 00:01:53;;;;;;;11.02;5.75;;;13.00;99.90;;;;;;5023914;28;20583;-75
2023/10/22 00:04:20;;;;;;;9.23;5.72;;;12.90;99.90;;;;;;5015779;28;20723;-80
2023/10/22 00:06:47;;;;;;;8.55;5.30;;;12.90;99.90;;;;;;5014434;28;20231;-75
2023/10/22 00:09:13;;;;;;;8.85;5.50;;;12.90;99.90;;;;;;5015761;28;20640;-77
2023/10/22 00:11:38;;;;;;;8.13;5.00;;;12.90;99.90;;;;;;5012149;28;20250;-72
2023/10/22 00:14:04;;;;;;;6.30;5.03;;;12.90;99.90;;;;;;5020604;28;20212;-73
2023/10/22 00:16:30;;;;;;;6.03;4.63;;;12.90;99.90;;;;;;5016035;28;20245;-75
2023/10/22 00:18:55;;;;;;;9.85;4.70;;;12.90;99.90;;;;;;5020362;28;20296;-75
2023/10/22 00:21:21;;;;;;;7.72;5.53;;;12.90;99.90;;;;;;5017852;28;20215;-78
2023/10/22 00:23:47;;;;;;;7.40;4.72;;;12.90;99.90;;;;;;5019139;28;20189;-75
2023/10/22 00:26:13;;;;;;;8.03;5.23;;;12.90;99.90;;;;;;5009220;28;20251;-74
2023/10/22 00:28:39;;;;;;;6.78;5.05;;;12.90;99.90;;;;;;5015904;28;20220;-75
2023/10/22 00:31:05;;;;;;;7.75;5.45;;;12.90;99.90;;;;;;5012283;28;20350;-74
2023/10/22 00:33:30;;;;;;;9.88;5.57;;;12.90;99.90;;;;;;5019600;28;20626;-75
2023/10/22 00:35:58;;;;;;;9.57;5.68;;;12.90;99.90;;;;;;5019878;28;20181;-76
2023/10/22 00:38:25;;;;;;;10.48;5.95;;;12.90;99.90;;;;;;5018558;28;20180;-74
2023/10/22 00:40:51;;;;;;;6.90;5.35;;;12.90;99.90;;;;;;5021518;28;20213;-75
2023/10/22 00:43:16;;;;;;;8.25;6.15;;;12.90;99.90;;;;;;5025146;28;20227;-78
2023/10/22 00:45:42;;;;;;;8.53;5.57;;;12.90;99.90;;;;;;5008883;28;20263;-75
2023/10/22 00:48:09;;;;;;;9.25;6.22;;;12.90;99.90;;;;;;5020341;28;20674;-75
2023/10/22 00:50:36;;;;;;;7.25;5.07;;;12.90;99.90;;;;;;5020019;28;20304;-75
2023/10/22 00:53:03;;;;;;;6.32;4.55;;;12.90;99.90;;;;;;5021783;28;20208;-73
2023/10/22 00:55:30;;;;;;;5.00;3.70;;;12.90;99.90;;;;;;5021203;28;20782;-73
2023/10/22 00:57:57;;;;;;;5.60;3.97;;;12.80;99.90;;;;;;5023149;28;20298;-72
2023/10/22 01:00:25;;;;;;;5.82;4.50;;;12.90;99.90;;;;;;5019767;28;20217;-73
2023/10/22 01:02:51;;;;;;;5.97;4.10;;;12.90;99.90;;;;;;5022964;28;20611;-73
2023/10/22 01:05:16;;;;;;;5.60;3.70;;;12.90;99.90;;;;;;5014066;28;20395;-74
2023/10/22 01:07:42;;;;;;;6.88;3.38;;;12.90;99.90;;;;;;5021559;28;20228;-76
2023/10/22 01:10:09;;;;;;;4.63;3.22;;;12.90;99.90;;;;;;5018761;28;20303;-75
2023/10/22 01:12:35;;;;;;;3.83;3.00;;;12.90;99.90;;;;;;5022344;28;20212;-75
2023/10/22 01:15:01;;;;;;;6.40;3.43;;;12.90;99.90;;;;;;5017562;28;20244;-76
2023/10/22 01:17:27;;;;;;;3.63;3.00;;;12.90;99.90;;;;;;5018131;28;20219;-75
2023/10/22 01:19:53;;;;;;;2.85;2.25;;;12.90;99.90;;;;;;5021349;28;20704;-75
2023/10/22 01:22:18;;;;;;;3.63;2.25;;;12.90;99.90;;;;;;5024369;28;20204;-77
2023/10/22 01:24:44;;;;;;;7.05;3.20;;;12.90;99.90;;;;;;5018635;28;20279;-76
2023/10/22 01:27:09;;;;;;;3.38;2.83;;;12.90;99.90;;;;;;5013899;28;20209;-73
2023/10/22 01:29:35;;;;;;;2.90;1.98;;;12.90;99.90;;;;;;5012109;28;20543;-75
2023/10/22 01:32:01;;;;;;;2.63;2.25;;;12.90;99.90;;;;;;5018691;28;20212;-76
2023/10/22 01:34:26;;;;;;;2.95;2.08;;;12.90;99.90;;;;;;5022713;28;20224;-75
2023/10/22 01:36:52;;;;;;;2.40;2.00;;;12.90;99.90;;;;;;5021270;28;20295;-74
2023/10/22 01:39:18;;;;;;;2.63;2.08;;;12.90;99.90;;;;;;5017596;28;20215;-75
2023/10/22 01:41:44;;;;;;;4.90;2.15;;;12.90;99.90;;;;;;5022431;28;20181;-74
2023/10/22 01:44:09;;;;;;;2.72;2.25;;;13.00;99.90;;;;;;5021664;28;20554;-75
2023/10/22 01:46:35;;;;;;;3.55;2.30;;;12.90;99.90;;;;;;5019789;28;20225;-75
2023/10/22 01:49:01;;;;;;;2.58;2.10;;;13.00;99.90;;;;;;5016749;28;20205;-75
2023/10/22 01:51:27;;;;;;;2.50;2.25;;;13.00;99.90;;;;;;5024047;28;20226;-74
2023/10/22 01:53:52;;;;;;;3.10;2.25;;;13.00;99.90;;;;;;5020080;28;20173;-75
2023/10/22 01:56:18;;;;;;;3.47;2.28;;;13.00;99.90;;;;;;5023272;28;20215;-74
2023/10/22 01:58:47;;;;;;;3.85;2.67;;;13.00;99.90;;;;;;5020623;28;20224;-77
2023/10/22 02:01:12;;;;;;;6.70;3.28;;;13.00;99.90;;;;;;5019010;28;20773;-75
2023/10/22 02:03:40;;;;;;;2.97;2.28;;;13.00;99.90;;;;;;5017377;28;20209;-76
2023/10/22 02:06:13;;;;;;;2.78;2.50;;;13.00;99.90;;;;;;5008719;28;20197;-75
2023/10/22 02:08:40;;;;;;;2.95;2.25;;;13.00;99.90;;;;;;5018461;28;20230;-76
2023/10/22 02:11:06;;;;;;;4.43;2.80;;;13.00;99.90;;;;;;5019757;28;20262;-74
2023/10/22 02:13:31;;;;;;;3.25;2.88;;;13.00;99.90;;;;;;5019933;28;20210;-73
2023/10/22 02:15:57;;;;;;;4.30;2.50;;;13.00;99.90;;;;;;5020475;28;20205;-74
2023/10/22 02:18:23;;;;;;;3.97;2.50;;;13.00;99.90;;;;;;5020860;28;20220;-75
2023/10/22 02:20:54;;;;;;;3.97;2.75;;;13.00;99.90;;;;;;5028218;28;20180;-75
2023/10/22 02:23:21;;;;;;;3.88;2.60;;;12.90;99.90;;;;;;5014746;28;20687;-75
2023/10/22 02:25:46;;;;;;;3.58;2.53;;;13.00;99.90;;;;;;5017900;28;20225;-75
2023/10/22 02:28:12;;;;;;;2.83;2.35;;;12.90;99.90;;;;;;5017816;28;20211;-75
2023/10/22 02:30:38;;;;;;;3.60;2.38;;;13.00;99.90;;;;;;5012484;28;20213;-76
2023/10/22 02:33:03;;;;;;;4.72;2.58;;;13.00;99.90;;;;;;5038111;28;20177;-75
2023/10/22 02:35:29;;;;;;;4.93;2.83;;;13.00;99.90;;;;;;5011787;28;20557;-75
2023/10/22 02:37:55;;;;;;;4.50;2.53;;;12.90;99.90;;;;;;5013579;28;20209;-75
2023/10/22 02:40:20;;;;;;;2.83;2.25;;;12.90;99.90;;;;;;5021687;28;20258;-78
2023/10/22 02:42:46;;;;;;;2.83;2.00;;;12.90;99.90;;;;;;5017215;28;20216;-75
2023/10/22 02:45:12;;;;;;;3.17;1.80;;;12.90;99.90;;;;;;5022192;28;20172;-75
2023/10/22 02:47:37;;;;;;;3.95;1.98;;;12.90;99.90;;;;;;5018964;28;20288;-73
2023/10/22 02:50:04;;;;;;;2.88;1.38;;;12.90;99.90;;;;;;5015904;28;20228;-75
2023/10/22 02:52:29;;;;;;;2.22;1.52;;;12.90;99.90;;;;;;5008325;28;20197;-75
2023/10/22 02:54:55;;;;;;;1.58;1.48;;;13.00;99.90;;;;;;5004689;28;20219;-75
2023/10/22 02:57:21;;;;;;;1.55;1.30;;;13.00;99.90;;;;;;5017290;28;20212;-76
2023/10/22 02:59:47;;;;;;;2.05;1.50;;;13.00;99.90;;;;;;5016898;28;20284;-75
2023/10/22 03:02:13;;;;;;;4.38;2.08;;;13.00;99.90;;;;;;5020081;28;20212;-79
2023/10/22 03:04:38;;;;;;;2.55;1.98;;;12.90;99.90;;;;;;5019369;28;20706;-74
2023/10/22 03:07:04;;;;;;;2.83;1.83;;;12.90;99.90;;;;;;5020555;28;20212;-75
2023/10/22 03:09:30;;;;;;;3.00;2.30;;;12.90;99.90;;;;;;5019309;28;20208;-76
2023/10/22 03:11:55;;;;;;;5.32;2.40;;;12.90;99.90;;;;;;5020104;28;20201;-76
2023/10/22 03:14:21;;;;;;;4.55;2.13;;;12.80;99.90;;;;;;5011921;28;20201;-74
2023/10/22 03:16:47;;;;;;;4.18;2.25;;;12.80;99.90;;;;;;5015460;28;20320;-75
2023/10/22 03:19:13;;;;;;;2.13;1.88;;;12.80;99.90;;;;;;5020815;28;20208;-75
2023/10/22 03:21:38;;;;;;;2.72;1.77;;;12.80;99.90;;;;;;5019038;28;20213;-76
2023/10/22 03:24:07;;;;;;;2.75;2.10;;;12.70;99.90;;;;;;5017828;28;20176;-76
2023/10/22 03:26:34;;;;;;;1.77;1.60;;;12.80;99.90;;;;;;5020628;28;20208;-75
2023/10/22 03:29:00;;;;;;;2.47;1.92;;;12.80;99.90;;;;;;5017603;28;20575;-76
2023/10/22 03:31:26;;;;;;;3.30;1.90;;;12.80;99.90;;;;;;5019539;28;20216;-74
2023/10/22 03:33:51;;;;;;;2.83;1.63;;;12.80;99.90;;;;;;5018372;28;20296;-75
2023/10/22 03:36:17;;;;;;;2.22;2.03;;;12.80;99.90;;;;;;5012105;28;20296;-75
2023/10/22 03:38:43;;;;;;;2.80;1.75;;;12.80;99.90;;;;;;5019912;28;20215;-76
2023/10/22 03:41:09;;;;;;;3.57;1.93;;;12.80;99.90;;;;;;5014964;28;20223;-76
2023/10/22 03:43:34;;;;;;;2.33;2.03;;;12.70;99.90;;;;;;5009390;28;20260;-77
2023/10/22 03:46:01;;;;;;;3.23;1.80;;;12.70;99.90;;;;;;5018530;28;20299;-74
2023/10/22 03:48:28;;;;;;;2.90;2.27;;;12.70;99.90;;;;;;5011875;28;20213;-75
2023/10/22 03:50:54;;;;;;;2.90;1.77;;;12.70;99.90;;;;;;5014521;28;20229;-75
2023/10/22 03:53:21;;;;;;;3.53;2.20;;;12.60;99.90;;;;;;5012635;28;20192;-74
2023/10/22 03:55:47;;;;;;;3.40;2.45;;;12.60;99.90;;;;;;5006766;28;20570;-74
2023/10/22 03:58:13;;;;;;;2.15;1.77;;;12.60;99.90;;;;;;5010174;28;20212;-76
2023/10/22 04:00:38;;;;;;;2.83;1.87;;;12.60;99.90;;;;;;5017669;28;20236;-75
2023/10/22 04:03:04;;;;;;;2.23;1.93;;;12.60;99.90;;;;;;5013293;28;20185;-76
2023/10/22 04:05:30;;;;;;;3.43;2.20;;;12.50;99.90;;;;;;5007833;28;20365;-77
2023/10/22 04:07:55;;;;;;;2.40;1.92;;;12.50;99.90;;;;;;5011136;28;20267;-76
2023/10/22 04:10:21;;;;;;;2.45;2.05;;;12.50;99.90;;;;;;5013292;28;20205;-77
2023/10/22 04:12:47;;;;;;;4.35;2.20;;;12.50;99.90;;;;;;5010871;28;20726;-72
2023/10/22 04:15:12;;;;;;;1.90;1.60;;;12.50;99.90;;;;;;5013273;28;20188;-76
2023/10/22 04:17:38;;;;;;;2.23;1.60;;;12.50;99.90;;;;;;5017568;28;20197;-76
2023/10/22 04:20:05;;;;;;;3.03;2.00;;;12.50;99.90;;;;;;5013063;28;20208;-77
2023/10/22 04:22:30;;;;;;;2.93;1.87;;;12.50;99.90;;;;;;5013896;28;20664;-76
2023/10/22 04:24:56;;;;;;;2.37;1.97;;;12.50;99.90;;;;;;5019025;28;20205;-75
2023/10/22 04:27:21;;;;;;;3.30;2.25;;;12.50;99.90;;;;;;5022577;28;20238;-77
2023/10/22 04:29:48;;;;;;;3.23;2.33;;;12.50;99.90;;;;;;5018747;28;20185;-78
2023/10/22 04:32:14;;;;;;;6.00;2.83;;;12.50;99.90;;;;;;5022811;28;20205;-76
2023/10/22 04:34:40;;;;;;;3.58;2.40;;;12.60;99.90;;;;;;5021351;28;20230;-77
2023/10/22 04:37:06;;;;;;;3.13;2.17;;;12.60;99.90;;;;;;5013987;28;20221;-78
2023/10/22 04:39:32;;;;;;;2.80;2.03;;;12.60;99.90;;;;;;5025198;28;20216;-79
2023/10/22 04:41:57;;;;;;;2.43;1.63;;;12.60;99.90;;;;;;5018980;28;20177;-75
2023/10/22 04:44:23;;;;;;;2.63;2.00;;;12.60;99.90;;;;;;5023820;28;20176;-75
2023/10/22 04:46:51;;;;;;;2.60;1.70;;;12.50;99.90;;;;;;5014767;28;20216;-77
2023/10/22 04:49:17;;;;;;;2.30;2.00;;;12.50;99.90;;;;;;5012764;28;20208;-76
2023/10/22 04:51:42;;;;;;;2.17;1.80;;;12.50;99.90;;;;;;5015318;28;20750;-76
2023/10/22 04:54:08;;;;;;;2.10;1.25;;;12.50;99.90;;;;;;5017957;28;20259;-75
2023/10/22 04:56:34;;;;;;;3.90;2.17;;;12.50;99.90;;;;;;5015689;28;20208;-75
2023/10/22 04:59:00;;;;;;;2.47;1.88;;;12.50;99.90;;;;;;5020092;28;20224;-74
2023/10/22 05:01:26;;;;;;;1.93;1.17;;;12.50;99.90;;;;;;5020977;28;20208;-75
2023/10/22 05:03:51;;;;;;;1.93;1.50;;;12.40;99.90;;;;;;5022177;28;20213;-75
2023/10/22 05:06:17;;;;;;;2.43;1.70;;;12.40;99.90;;;;;;5026112;28;20295;-75
2023/10/22 05:08:42;;;;;;;2.33;1.80;;;12.40;99.90;;;;;;5021875;28;20666;-76
2023/10/22 05:11:16;;;;;;;2.27;1.60;;;12.40;99.90;;;;;;5017099;28;20856;-75
2023/10/22 05:13:46;;;;;;;2.93;1.53;;;12.40;99.90;;;;;;5019701;28;20682;-75
2023/10/22 05:16:12;;;;;;;3.92;1.70;;;12.40;99.90;;;;;;5017506;28;20209;-76
2023/10/22 05:18:38;;;;;;;4.00;1.83;;;12.40;99.90;;;;;;5020432;28;20658;-73
2023/10/22 05:21:05;;;;;;;2.83;1.60;;;12.40;99.90;;;;;;5020527;28;20264;-75
2023/10/22 05:23:34;;;;;;;2.80;1.80;;;12.40;99.90;;;;;;5022410;28;20250;-75
2023/10/22 05:26:08;;;;;;;2.63;2.03;;;12.40;99.90;;;;;;5021790;28;20599;-76
2023/10/22 05:28:34;;;;;;;2.70;2.00;;;12.40;99.90;;;;;;5022510;28;20588;-76
2023/10/22 05:31:00;;;;;;;3.23;1.73;;;12.40;99.90;;;;;;5020661;28;20207;-76
2023/10/22 05:33:26;;;;;;;2.43;2.23;;;12.40;99.90;;;;;;5025354;28;20589;-75
2023/10/22 05:35:51;;;;;;;2.10;1.87;;;12.40;99.90;;;;;;5011879;28;20331;-75
2023/10/22 05:38:17;;;;;;;2.87;1.80;;;12.40;99.90;;;;;;5017947;28;20236;-76
2023/10/22 05:40:43;;;;;;;3.10;1.90;;;12.30;99.90;;;;;;5021867;28;20710;-74
2023/10/22 05:43:08;;;;;;;2.97;2.00;;;12.30;99.90;;;;;;5021906;28;20200;-76
2023/10/22 05:45:35;;;;;;;3.30;2.40;;;12.40;99.90;;;;;;5017831;28;20229;-75
2023/10/22 05:48:00;;;;;;;2.80;2.13;;;12.40;99.90;;;;;;5019300;28;20276;-74
2023/10/22 05:50:26;;;;;;;2.97;2.20;;;12.40;99.90;;;;;;5024130;28;20272;-75
2023/10/22 05:52:52;;;;;;;2.90;2.13;;;12.40;99.90;;;;;;5020363;28;20204;-75
2023/10/22 05:55:18;;;;;;;2.43;1.77;;;12.40;99.90;;;;;;5010011;28;20687;-75
2023/10/22 05:57:47;;;;;;;3.83;2.50;;;12.30;99.90;;;;;;5016336;28;20220;-76
2023/10/22 06:00:13;;;;;;;2.70;2.30;;;12.40;99.90;;;;;;5018823;28;20680;-76
2023/10/22 06:02:40;;;;;;;2.60;1.70;;;12.40;99.90;;;;;;5022528;28;20592;-73
2023/10/22 06:05:08;;;;;;;4.43;2.30;;;12.40;99.90;;;;;;5020760;28;20200;-75
2023/10/22 06:07:34;;;;;;;2.80;1.80;;;12.40;99.90;;;;;;5019023;28;20231;-76
2023/10/22 06:09:59;;;;;;;2.72;2.20;;;12.40;99.90;;;;;;5020874;28;20212;-75
2023/10/22 06:12:25;;;;;;;3.13;2.10;;;12.40;99.90;;;;;;5021220;28;20586;-76
2023/10/22 06:14:50;;;;;;;2.80;2.23;;;12.40;99.90;;;;;;5013380;28;20255;-75
2023/10/22 06:17:16;;;;;;;2.63;2.20;;;12.40;99.90;;;;;;5020396;28;20221;-75
2023/10/22 06:19:43;;;;;;;2.58;2.20;;;12.40;99.90;;;;;;5019351;28;20744;-75
2023/10/22 06:22:09;;;;;;;2.33;1.90;;;12.40;99.90;;;;;;5011644;28;20698;-76
2023/10/22 06:24:34;;;;;;;2.00;1.63;;;12.40;99.90;;;;;;5016492;28;20217;-75
2023/10/22 06:27:00;;;;;;;2.80;2.13;;;12.40;99.90;;;;;;5016118;28;20220;-75
2023/10/22 06:29:26;;;;;;;3.63;2.27;;;12.40;99.90;;;;;;5017891;28;20178;-75
2023/10/22 06:31:51;;;;;;;3.10;2.23;;;12.40;99.90;;;;;;5017472;28;20227;-75
2023/10/22 06:34:17;;;;;;;3.33;2.40;;;12.30;99.90;;;;;;5036405;28;20282;-75
2023/10/22 06:36:43;;;;;;;3.67;2.30;;;12.40;99.90;;;;;;5019915;28;20706;-76
2023/10/22 06:39:08;;;;;;;3.43;2.43;;;12.40;99.90;;;;;;5020309;28;20185;-75
2023/10/22 06:41:34;;;;;;;4.20;2.50;;;12.40;99.90;;;;;;5021865;28;20180;-76
2023/10/22 06:44:00;;;;;;;2.90;2.30;;;12.40;99.90;;;;;;5018213;28;20200;-76
2023/10/22 06:46:26;;;;;;;3.87;2.20;;;12.40;99.90;;;;;;5011125;28;20606;-77
2023/10/22 06:48:51;;;;;;;2.70;2.00;;;12.50;99.90;;;;;;5018276;28;20560;-76
2023/10/22 06:51:17;;;;;;;2.85;2.13;;;12.50;99.90;;;;;;5020122;28;20251;-76
2023/10/22 06:53:47;;;;;;;5.50;2.08;;;12.50;99.90;;;;;;5019191;28;20661;-76
2023/10/22 06:56:12;;;;;;;3.40;1.77;;;12.60;99.90;;;;;;5021414;28;20253;-76
2023/10/22 06:58:38;;;;;;;3.47;2.17;;;12.60;99.90;;;;;;5045000;22;20783;-76
2023/10/22 07:01:06;;;;;;;4.68;2.30;;;12.70;99.90;;;;;;5028910;28;21118;-75
2023/10/22 07:03:33;;;;;;;4.40;2.17;;;12.70;99.90;;;;;;5026964;28;20644;-75
2023/10/22 07:05:59;;;;;;;3.72;2.38;;;12.70;99.90;;;;;;5029703;28;20235;-75
2023/10/22 07:08:26;;;;;;;3.33;2.20;;;12.70;99.90;;;;;;5022628;28;20185;-75
2023/10/22 07:10:51;;;;;;;2.50;1.80;;;12.70;99.90;;;;;;5020076;28;20239;-75
2023/10/22 07:13:18;;;;;;;3.58;1.55;;;12.80;99.90;;;;;;5018566;28;20224;-75
2023/10/22 07:15:43;;;;;;;4.30;1.80;;;12.80;99.90;;;;;;5010293;28;20256;-75
2023/10/22 07:18:09;;;;;;;3.08;2.17;;;13.00;99.90;;;;;;5014538;28;20228;-75
2023/10/22 07:20:34;;;;;;;2.72;1.98;;;13.10;99.90;;;;;;5018463;28;20184;-75
2023/10/22 07:23:01;;;;;;;3.67;1.63;;;13.20;99.90;;;;;;5016342;28;21052;-75
2023/10/22 07:25:27;;;;;;;2.30;1.60;;;13.40;99.90;;;;;;5021276;28;20233;-75
2023/10/22 07:27:53;;;;;;;2.10;1.50;;;13.50;99.90;;;;;;5018445;28;20225;-75
2023/10/22 07:30:19;;;;;;;3.15;2.13;;;13.70;99.90;;;;;;5021068;28;20215;-75
2023/10/22 07:32:44;;;;;;;2.20;1.67;;;13.80;99.90;;;;;;5020718;28;20196;-75
2023/10/22 07:35:10;;;;;;;1.40;1.30;;;13.80;99.90;;;;;;5010503;28;20208;-75
2023/10/22 07:37:37;;;;;;;31.27;17.08;;;13.90;99.90;;;;;;5015660;28;20236;-72
2023/10/22 07:40:03;;;;;;;7.20;4.05;;;13.90;99.90;;;;;;5017564;28;20254;-74
2023/10/22 07:42:30;;;;;;;2.60;1.73;;;13.90;99.90;;;;;;5018599;28;20204;-75
2023/10/22 07:44:56;;;;;;;2.35;1.48;;;13.90;99.90;;;;;;5017962;28;20202;-74
2023/10/22 07:47:22;;;;;;;2.05;1.35;;;14.00;99.90;;;;;;5015034;28;20212;-74
2023/10/22 07:49:51;;;;;;;4.20;1.55;;;14.10;99.90;;;;;;5020484;28;20204;-75
2023/10/22 07:52:17;;;;;;;2.45;1.73;;;14.00;99.90;;;;;;5019404;28;20207;-75
2023/10/22 07:54:47;;;;;;;2.95;1.60;;;14.10;99.90;;;;;;5014198;28;20205;-78
2023/10/22 07:57:13;;;;;;;2.63;1.55;;;14.10;99.90;;;;;;5007162;28;20671;-76
2023/10/22 07:59:38;;;;;;;1.23;1.13;;;14.10;99.90;;;;;;5019332;28;20269;-75
2023/10/22 08:02:04;;;;;;;1.83;1.23;;;14.20;99.90;;;;;;5014987;28;20205;-75
2023/10/22 08:04:29;;;;;;;1.98;1.30;;;14.20;99.90;;;;;;5021014;28;20208;-75
2023/10/22 08:06:55;;;;;;;2.25;1.20;;;14.20;99.90;;;;;;5014769;28;20291;-75
2023/10/22 08:09:22;;;;;;;1.30;1.20;;;14.30;99.90;;;;;;5020885;28;20212;-75
2023/10/22 08:11:47;;;;;;;1.35;1.15;;;14.30;99.90;;;;;;5017459;28;20189;-76
2023/10/22 08:14:13;;;;;;;2.47;1.23;;;14.20;99.90;;;;;;5014502;28;20736;-75
2023/10/22 08:16:39;;;;;;;2.08;1.25;;;14.40;99.90;;;;;;5011872;28;20219;-75
2023/10/22 08:19:04;;;;;;;1.30;1.10;;;14.40;99.90;;;;;;5018722;28;20205;-75
2023/10/22 08:21:31;;;;;;;2.90;1.17;;;14.40;99.90;;;;;;5016997;28;20638;-76
2023/10/22 08:23:56;;;;;;;3.30;1.33;;;14.40;99.90;;;;;;5018869;28;20185;-72
2023/10/22 08:26:23;;;;;;;1.33;1.02;;;14.50;99.90;;;;;;5023881;28;20200;-76
2023/10/22 08:28:49;;;;;;;4.60;1.48;;;14.60;99.90;;;;;;5017933;28;20208;-75
2023/10/22 08:31:15;;;;;;;2.13;1.58;;;14.60;99.90;;;;;;5018650;28;20208;-75
2023/10/22 08:33:40;;;;;;;1.85;1.20;;;14.70;99.90;;;;;;5020939;28;20646;-75
2023/10/22 08:36:07;;;;;;;2.97;1.05;;;14.70;99.90;;;;;;5017689;28;20181;-74
2023/10/22 08:38:33;;;;;;;1.85;1.13;;;14.70;99.90;;;;;;5022058;28;20207;-76
2023/10/22 08:41:00;;;;;;;1.48;1.38;;;14.70;99.90;;;;;;5016240;28;20209;-75
2023/10/22 08:43:33;;;;;;;1.10;1.00;;;14.70;99.90;;;;;;5007667;28;20209;-77
2023/10/22 08:46:00;;;;;;;1.75;1.50;;;14.70;99.90;;;;;;5032364;28;20259;-74
2023/10/22 08:48:27;;;;;;;1.20;0.82;;;14.70;99.90;;;;;;5018601;28;20741;-74
2023/10/22 08:50:54;;;;;;;3.10;1.50;;;14.70;99.90;;;;;;5017383;28;20247;-75
2023/10/22 08:53:19;;;;;;;2.67;1.10;;;14.70;99.90;;;;;;5022332;28;20678;-74
2023/10/22 08:55:47;;;;;;;2.33;1.10;;;14.70;99.90;;;;;;5019170;28;20227;-72
2023/10/22 08:58:18;;;;;;;1.65;1.30;;;14.70;99.90;;;;;;5024257;28;20243;-74
2023/10/22 09:00:46;;;;;;;1.83;0.90;;;14.70;99.90;;;;;;5020175;28;20644;-77
2023/10/22 09:03:16;;;;;;;2.40;0.93;;;14.70;99.90;;;;;;5016463;28;20234;-75
2023/10/22 09:05:43;;;;;;;2.35;1.10;;;14.60;99.90;;;;;;5023741;28;20222;-75
2023/10/22 09:08:09;;;;;;;2.17;0.98;;;14.50;99.90;;;;;;5022875;28;20212;-76
2023/10/22 09:10:36;;;;;;;0.95;0.90;;;14.40;99.90;;;;;;5023913;28;20266;-75
2023/10/22 09:13:22;;;;;;;2.95;1.33;;;14.50;99.90;;;;;;5019131;28;20317;-74
2023/10/22 09:15:50;;;;;;;1.48;1.00;;;14.60;99.90;;;;;;5017871;28;20216;-76
2023/10/22 09:18:17;;;;;;;2.38;1.00;;;14.70;99.90;;;;;;5020172;28;20216;-75
2023/10/22 09:20:44;;;;;;;6.38;3.53;;;14.70;99.90;;;;;;5023883;28;20247;-76
2023/10/22 09:23:14;;;;;;;8.95;5.47;;;14.60;99.90;;;;;;5021834;28;20201;-75
2023/10/22 09:25:41;;;;;;;2.38;0.90;;;14.60;99.90;;;;;;5022973;28;20307;-75
2023/10/22 09:28:26;;;;;;;1.40;0.82;;;14.70;99.90;;;;;;5011349;28;20662;-75
2023/10/22 09:31:04;;;;;;;3.22;1.23;;;14.70;99.90;;;;;;5021651;28;20212;-75
2023/10/22 09:33:35;;;;;;;1.42;1.00;;;14.70;99.90;;;;;;5020502;28;20212;-75
2023/10/22 09:36:12;;;;;;;1.95;0.90;;;14.70;99.90;;;;;;5020194;28;20181;-75
2023/10/22 09:38:47;;;;;;;2.15;1.00;;;14.70;99.90;;;;;;5021241;28;20549;-75
2023/10/22 09:41:23;;;;;;;2.17;1.13;;;14.70;99.90;;;;;;5023129;28;20208;-75
2023/10/22 09:43:59;;;;;;;1.95;0.90;;;14.60;99.90;;;;;;5004177;28;20622;-75
2023/10/22 09:46:30;;;;;;;4.78;1.33;;;14.70;99.90;;;;;;5015598;28;20239;-75
2023/10/22 09:48:58;;;;;;;3.53;1.17;;;14.70;99.90;;;;;;5017998;28;20219;-74
2023/10/22 09:51:29;;;;;;;3.20;1.30;;;14.70;99.90;;;;;;5020758;28;20205;-76
2023/10/22 09:53:56;;;;;;;2.03;1.00;;;14.70;99.90;;;;;;5019845;28;20177;-75
2023/10/22 09:56:23;;;;;;;1.10;0.90;;;14.70;99.90;;;;;;5021237;28;20205;-75
2023/10/22 09:58:56;;;;;;;2.38;1.42;;;14.80;99.90;;;;;;5021388;28;20710;-75
2023/10/22 10:01:24;;;;;;;3.05;1.45;;;14.80;99.90;;;;;;5021772;28;20213;-75
2023/10/22 10:03:53;;;;;;;2.58;1.17;;;14.80;99.90;;;;;;5020691;28;20208;-75
2023/10/22 10:06:19;;;;;;;1.48;0.90;;;14.80;99.90;;;;;;5022211;28;20213;-74
2023/10/22 10:08:44;;;;;;;1.50;1.10;;;14.80;99.90;;;;;;5021843;28;20212;-75
2023/10/22 10:11:12;;;;;;;1.20;1.10;;;14.80;99.90;;;;;;5021339;28;20208;-75
2023/10/22 10:13:37;;;;;;;1.42;0.90;;;14.90;99.90;;;;;;5014986;28;20267;-75
2023/10/22 10:16:05;;;;;;;1.40;0.77;;;14.90;99.90;;;;;;5012310;28;20220;-75
2023/10/22 10:19:02;;;;;;;1.52;0.80;;;14.90;99.90;;;;;;5019063;28;20212;-75
2023/10/22 10:21:33;;;;;;;2.60;1.25;;;14.90;99.90;;;;;;5020443;28;20707;-75
2023/10/22 10:24:14;;;;;;;2.78;1.30;;;14.90;99.90;;;;;;5019562;28;20177;-76
2023/10/22 10:26:41;;;;;;;1.75;1.08;;;14.90;99.90;;;;;;5018412;28;20675;-74
2023/10/22 10:29:06;;;;;;;2.13;1.10;;;14.90;99.90;;;;;;5019422;28;20217;-76
2023/10/22 10:31:32;;;;;;;2.17;1.08;;;14.90;99.90;;;;;;5018106;28;20204;-75
2023/10/22 10:34:02;;;;;;;3.60;1.00;;;14.90;99.90;;;;;;5009962;28;20638;-75
2023/10/22 10:36:28;;;;;;;2.47;1.42;;;15.00;99.90;;;;;;5015589;28;20217;-75
2023/10/22 10:39:14;;;;;;;2.45;1.23;;;15.10;99.90;;;;;;5016532;28;20200;-75
2023/10/22 10:41:53;;;;;;;2.38;1.10;;;15.10;99.90;;;;;;5013213;28;20182;-75
2023/10/22 10:44:18;;;;;;;2.25;0.82;;;15.20;99.90;;;;;;5019331;28;20247;-76
2023/10/22 10:46:44;;;;;;;2.90;1.38;;;15.20;99.90;;;;;;5017775;28;20240;-76
2023/10/22 10:49:10;;;;;;;1.63;1.05;;;15.30;99.90;;;;;;5022713;28;20216;-75
2023/10/22 10:51:36;;;;;;;4.10;1.65;;;15.30;99.90;;;;;;5021466;28;20220;-75
2023/10/22 10:54:07;;;;;;;4.70;1.25;;;15.30;99.90;;;;;;5011359;28;20181;-76
2023/10/22 10:56:49;;;;;;;1.95;1.25;;;15.50;99.90;;;;;;5017184;28;20227;-75
2023/10/22 10:59:28;;;;;;;6.47;3.70;;;15.60;99.90;;;;;;5019215;28;20216;-76
2023/10/22 11:02:07;;;;;;;3.85;1.10;;;15.60;99.90;;;;;;5015253;28;20208;-76
2023/10/22 11:04:35;;;;;;;2.55;1.38;;;15.70;99.90;;;;;;5020616;28;20304;-76
2023/10/22 11:07:02;;;;;;;3.20;1.10;;;15.70;99.90;;;;;;5018568;28;20216;-75
2023/10/22 11:09:27;;;;;;;2.92;1.20;;;15.80;99.90;;;;;;5020040;28;20209;-75
2023/10/22 11:11:58;;;;;;;1.85;0.88;;;15.80;99.90;;;;;;5020073;28;20226;-75
2023/10/22 11:14:25;;;;;;;2.53;1.00;;;15.80;99.90;;;;;;5012027;28;20181;-75
2023/10/22 11:16:56;;;;;;;4.45;2.78;;;15.80;99.90;;;;;;5010797;28;20240;-75
2023/10/22 11:19:27;;;;;;;5.78;1.58;;;15.90;99.90;;;;;;5014612;28;20215;-77
2023/10/22 11:21:54;;;;;;;2.90;0.88;;;15.90;99.90;;;;;;5018281;28;20295;-75
2023/10/22 11:24:32;;;;;;;1.35;0.68;;;16.00;99.90;;;;;;5018926;28;20263;-75
2023/10/22 11:26:59;;;;;;;3.67;1.02;;;16.10;99.90;;;;;;5013292;28;20209;-75
2023/10/22 11:29:25;;;;;;;2.25;0.63;;;16.10;99.90;;;;;;5021158;28;20192;-76
2023/10/22 11:31:56;;;;;;;2.80;0.70;;;16.20;99.90;;;;;;5019257;28;20773;-73
2023/10/22 11:34:22;;;;;;;2.60;0.80;;;16.20;99.90;;;;;;5022094;28;20204;-76
2023/10/22 11:36:48;;;;;;;0.85;0.70;;;16.30;99.90;;;;;;5012387;28;20299;-76
2023/10/22 11:39:20;;;;;;;2.22;0.77;;;16.30;99.90;;;;;;5019712;28;20343;-75
2023/10/22 11:41:51;;;;;;;5.18;1.08;;;16.40;99.90;;;;;;5015937;28;20212;-76
2023/10/22 11:44:34;;;;;;;4.13;0.82;;;16.50;99.90;;;;;;5014469;28;20621;-76
2023/10/22 11:47:24;;;;;;;1.40;0.80;;;16.60;99.90;;;;;;5014207;28;20219;-76
2023/10/22 11:49:54;;;;;;;3.15;0.70;;;16.80;99.90;;;;;;5014783;28;20216;-76
2023/10/22 11:52:36;;;;;;;3.42;0.70;;;16.80;99.90;;;;;;5031351;28;20205;-76
2023/10/22 11:55:03;;;;;;;5.88;0.80;;;16.80;99.90;;;;;;5013920;28;20221;-76
2023/10/22 11:57:29;;;;;;;1.48;0.55;;;16.90;99.90;;;;;;5015011;28;20220;-74
2023/10/22 11:59:54;;;;;;;2.35;0.57;;;17.00;99.90;;;;;;5015935;28;20212;-76
2023/10/22 12:02:20;;;;;;;1.73;0.77;;;17.00;99.90;;;;;;5019076;28;20192;-75
2023/10/22 12:04:47;;;;;;;1.23;0.60;;;17.20;99.90;;;;;;5021804;28;20231;-75
2023/10/22 12:07:13;;;;;;;3.15;0.60;;;17.20;99.90;;;;;;5016590;28;20225;-76
2023/10/22 12:09:39;;;;;;;2.55;0.60;;;17.40;99.90;;;;;;5015695;28;20647;-75
2023/10/22 12:12:06;;;;;;;3.42;0.63;;;17.30;99.90;;;;;;5012528;28;20210;-76
2023/10/22 12:14:32;;;;;;;2.38;0.75;;;17.30;99.90;;;;;;5019625;28;20173;-76
2023/10/22 12:16:57;;;;;;;2.08;0.52;;;17.50;99.90;;;;;;5016420;28;20213;-75
2023/10/22 12:19:23;;;;;;;4.00;0.65;;;17.50;99.90;;;;;;5020934;28;20809;-76
2023/10/22 12:21:49;;;;;;;2.35;1.30;;;17.30;99.90;;;;;;5017087;28;20209;-75
2023/10/22 12:24:15;;;;;;;2.08;0.80;;;17.20;99.90;;;;;;5016949;28;20208;-76
2023/10/22 12:26:40;;;;;;;2.72;0.75;;;17.10;99.90;;;;;;5023887;28;20227;-73
2023/10/22 12:29:06;;;;;;;2.70;1.05;;;17.00;99.90;;;;;;5021882;28;20208;-75
2023/10/22 12:31:32;;;;;;;3.58;0.98;;;17.00;99.90;;;;;;5008877;28;20212;-75
2023/10/22 12:33:58;;;;;;;5.00;2.00;;;17.00;99.90;;;;;;5023393;28;20208;-76
2023/10/22 12:36:23;;;;;;;4.05;1.02;;;17.00;99.90;;;;;;5021986;28;20229;-75
2023/10/22 12:38:51;;;;;;;1.52;0.70;;;16.90;99.90;;;;;;5022495;28;20196;-76
2023/10/22 12:41:18;;;;;;;3.13;1.05;;;16.90;99.90;;;;;;5020127;28;20209;-75
2023/10/22 12:43:43;;;;;;;5.05;0.90;;;16.90;99.90;;;;;;5022053;28;20250;-76
2023/10/22 12:46:09;;;;;;;2.38;0.75;;;17.00;99.90;;;;;;5020362;28;20217;-75